createdAt,value
2022-09-17T00:00:02.096Z,1002.21
2022-09-17T00:01:02.173Z,1002.25
2022-09-17T00:02:02.134Z,1002.22
2022-09-17T00:03:02.670Z,1002.17
2022-09-17T00:04:02.320Z,1002.20
2022-09-17T00:05:02.087Z,1002.26
2022-09-17T00:06:02.558Z,1002.19
2022-09-17T00:07:02.454Z,1002.19
2022-09-17T00:08:02.993Z,1002.25
2022-09-17T00:09:02.466Z,1002.24
2022-09-17T00:10:02.401Z,1002.24
2022-09-17T00:11:02.828Z,1002.27
2022-09-17T00:12:01.752Z,1002.22
2022-09-17T00:13:01.772Z,1002.23
2022-09-17T00:14:01.975Z,1002.22
2022-09-17T00:15:02.267Z,1002.26
2022-09-17T00:16:02.215Z,1002.26
2022-09-17T00:17:02.154Z,1002.29
2022-09-17T00:18:02.116Z,1002.26
2022-09-17T00:19:02.131Z,1002.30
2022-09-17T00:20:02.483Z,1002.29
2022-09-17T00:21:02.207Z,1002.23
2022-09-17T00:22:02.392Z,1002.27
2022-09-17T00:23:02.272Z,1002.26
2022-09-17T00:24:02.546Z,1002.26
2022-09-17T00:25:02.450Z,1002.27
2022-09-17T00:26:02.322Z,1002.23
2022-09-17T00:27:02.740Z,1002.30
2022-09-17T00:28:02.309Z,1002.29
2022-09-17T00:29:02.764Z,1002.29
2022-09-17T00:30:02.411Z,1002.34
2022-09-17T00:31:02.438Z,1002.34
2022-09-17T00:32:02.999Z,1002.36
2022-09-17T00:33:02.609Z,1002.34
2022-09-17T00:34:02.436Z,1002.32
2022-09-17T00:35:02.330Z,1002.33
2022-09-17T00:36:02.874Z,1002.30
2022-09-17T00:37:01.617Z,1002.34
2022-09-17T00:38:01.830Z,1002.30
2022-09-17T00:39:01.783Z,1002.36
2022-09-17T00:40:02.367Z,1002.35
2022-09-17T00:41:01.914Z,1002.37
2022-09-17T00:42:01.862Z,1002.29
2022-09-17T00:43:01.924Z,1002.34
2022-09-17T00:44:02.013Z,1002.32
2022-09-17T00:45:01.917Z,1002.28
2022-09-17T00:46:02.296Z,1002.29
2022-09-17T00:47:02.145Z,1002.32
2022-09-17T00:48:02.200Z,1002.32
2022-09-17T00:49:02.070Z,1002.33
2022-09-17T00:50:02.057Z,1002.29
2022-09-17T00:51:02.467Z,1002.31
2022-09-17T00:52:02.300Z,1002.28
2022-09-17T00:53:02.227Z,1002.29
2022-09-17T00:54:02.378Z,1002.27
2022-09-17T00:55:02.311Z,1002.28
2022-09-17T00:56:01.993Z,1002.25
2022-09-17T00:57:02.466Z,1002.30
2022-09-17T00:58:02.944Z,1002.28
2022-09-17T00:59:02.834Z,1002.25
2022-09-17T01:00:02.677Z,1002.28
2022-09-17T01:01:02.504Z,1002.32
2022-09-17T01:02:02.015Z,1002.32
2022-09-17T01:03:02.453Z,1002.33
2022-09-17T01:04:02.461Z,1002.27
2022-09-17T01:05:02.227Z,1002.33
2022-09-17T01:06:02.384Z,1002.28
2022-09-17T01:07:02.336Z,1002.30
2022-09-17T01:08:02.197Z,1002.27
2022-09-17T01:09:02.573Z,1002.25
2022-09-17T01:10:02.319Z,1002.29
2022-09-17T01:11:02.171Z,1002.29
2022-09-17T01:12:01.609Z,1002.32
2022-09-17T01:13:01.887Z,1002.25
2022-09-17T01:14:01.743Z,1002.24
2022-09-17T01:15:01.581Z,1002.31
2022-09-17T01:16:02.107Z,1002.24
2022-09-17T01:17:01.873Z,1002.24
2022-09-17T01:18:01.785Z,1002.24
2022-09-17T01:19:01.671Z,1002.23
2022-09-17T01:20:02.048Z,1002.23
2022-09-17T01:21:02.029Z,1002.22
2022-09-17T01:22:01.942Z,1002.23
2022-09-17T01:23:01.803Z,1002.25
2022-09-17T01:24:02.355Z,1002.22
2022-09-17T01:25:01.982Z,1002.23
2022-09-17T01:26:01.828Z,1002.25
2022-09-17T01:27:02.747Z,1002.26
2022-09-17T01:28:02.332Z,1002.29
2022-09-17T01:29:02.655Z,1002.23
2022-09-17T01:30:02.210Z,1002.27
2022-09-17T01:31:02.289Z,1002.30
2022-09-17T01:32:01.887Z,1002.29
2022-09-17T01:33:01.755Z,1002.24
2022-09-17T01:34:02.108Z,1002.23
2022-09-17T01:35:01.740Z,1002.30
2022-09-17T01:36:01.823Z,1002.23
2022-09-17T01:37:02.339Z,1002.27
2022-09-17T01:38:02.167Z,1002.28
2022-09-17T01:39:02.048Z,1002.26
2022-09-17T01:40:02.736Z,1002.24
2022-09-17T01:41:02.433Z,1002.25
2022-09-17T01:42:01.932Z,1002.31
2022-09-17T01:43:01.799Z,1002.29
2022-09-17T01:44:02.145Z,1002.37
2022-09-17T01:45:01.859Z,1002.34
2022-09-17T01:46:02.069Z,1002.36
2022-09-17T01:47:02.384Z,1002.36
2022-09-17T01:48:02.128Z,1002.38
2022-09-17T01:49:02.134Z,1002.37
2022-09-17T01:50:02.649Z,1002.38
2022-09-17T01:51:02.485Z,1002.31
2022-09-17T01:52:03.235Z,1002.34
2022-09-17T01:53:03.041Z,1002.33
2022-09-17T01:54:02.920Z,1002.37
2022-09-17T01:55:03.144Z,1002.34
2022-09-17T01:56:02.499Z,1002.29
2022-09-17T01:57:02.015Z,1002.32
2022-09-17T01:58:02.380Z,1002.37
2022-09-17T01:59:02.138Z,1002.41
2022-09-17T02:00:01.957Z,1002.40
2022-09-17T02:01:02.039Z,1002.35
2022-09-17T02:02:02.353Z,1002.37
2022-09-17T02:03:01.960Z,1002.35
2022-09-17T02:04:02.528Z,1002.36
2022-09-17T02:05:02.220Z,1002.31
2022-09-17T02:06:01.935Z,1002.35
2022-09-17T02:07:02.530Z,1002.36
2022-09-17T02:08:02.358Z,1002.40
2022-09-17T02:09:02.265Z,1002.44
2022-09-17T02:10:02.595Z,1002.43
2022-09-17T02:11:02.167Z,1002.50
2022-09-17T02:12:02.690Z,1002.51
2022-09-17T02:13:02.750Z,1002.54
2022-09-17T02:14:02.577Z,1002.51
2022-09-17T02:15:02.502Z,1002.51
2022-09-17T02:16:03.018Z,1002.51
2022-09-17T02:17:02.180Z,1002.53
2022-09-17T02:18:01.988Z,1002.56
2022-09-17T02:19:02.615Z,1002.50
2022-09-17T02:20:02.281Z,1002.58
2022-09-17T02:21:02.189Z,1002.60
2022-09-17T02:22:02.908Z,1002.57
2022-09-17T02:23:02.943Z,1002.56
2022-09-17T02:24:02.536Z,1002.57
2022-09-17T02:25:02.311Z,1002.62
2022-09-17T02:26:02.622Z,1002.63
2022-09-17T02:27:02.890Z,1002.67
2022-09-17T02:28:03.541Z,1002.67
2022-09-17T02:29:02.903Z,1002.68
2022-09-17T02:30:02.845Z,1002.69
2022-09-17T02:31:03.255Z,1002.69
2022-09-17T02:32:03.178Z,1002.68
2022-09-17T02:33:03.023Z,1002.64
2022-09-17T02:34:03.282Z,1002.65
2022-09-17T02:35:03.282Z,1002.59
2022-09-17T02:36:03.337Z,1002.61
2022-09-17T02:37:02.227Z,1002.70
2022-09-17T02:38:02.496Z,1002.63
2022-09-17T02:39:02.547Z,1002.68
2022-09-17T02:40:02.955Z,1002.59
2022-09-17T02:41:02.691Z,1002.54
2022-09-17T02:42:03.303Z,1002.56
2022-09-17T02:43:03.247Z,1002.61
2022-09-17T02:44:03.145Z,1002.64
2022-09-17T02:45:03.029Z,1002.62
2022-09-17T02:46:02.902Z,1002.63
2022-09-17T02:47:02.012Z,1002.55
2022-09-17T02:48:02.363Z,1002.64
2022-09-17T02:49:02.547Z,1002.58
2022-09-17T02:50:02.438Z,1002.56
2022-09-17T02:51:01.963Z,1002.65
2022-09-17T02:52:02.456Z,1002.58
2022-09-17T02:53:02.286Z,1002.52
2022-09-17T02:54:02.283Z,1002.61
2022-09-17T02:55:02.163Z,1002.58
2022-09-17T02:56:02.529Z,1002.55
2022-09-17T02:57:02.823Z,1002.59
2022-09-17T02:58:02.977Z,1002.57
2022-09-17T02:59:02.793Z,1002.54
2022-09-17T03:00:02.750Z,1002.63
2022-09-17T03:01:03.168Z,1002.61
2022-09-17T03:02:02.701Z,1002.58
2022-09-17T03:03:02.349Z,1002.57
2022-09-17T03:04:02.185Z,1002.59
2022-09-17T03:05:02.123Z,1002.62
2022-09-17T03:06:02.332Z,1002.57
2022-09-17T03:07:01.997Z,1002.59
2022-09-17T03:08:01.830Z,1002.58
2022-09-17T03:09:02.186Z,1002.54
2022-09-17T03:10:01.842Z,1002.58
2022-09-17T03:11:01.861Z,1002.54
2022-09-17T03:12:02.836Z,1002.57
2022-09-17T03:13:02.067Z,1002.54
2022-09-17T03:14:02.106Z,1002.57
2022-09-17T03:15:02.551Z,1002.65
2022-09-17T03:16:02.758Z,1002.60
2022-09-17T03:17:02.274Z,1002.55
2022-09-17T03:18:02.578Z,1002.60
2022-09-17T03:19:02.452Z,1002.55
2022-09-17T03:20:02.337Z,1002.58
2022-09-17T03:21:02.127Z,1002.58
2022-09-17T03:22:02.283Z,1002.56
2022-09-17T03:23:01.806Z,1002.57
2022-09-17T03:24:02.127Z,1002.60
2022-09-17T03:25:02.058Z,1002.59
2022-09-17T03:26:02.333Z,1002.58
2022-09-17T03:27:01.991Z,1002.61
2022-09-17T03:28:02.271Z,1002.61
2022-09-17T03:29:02.464Z,1002.63
2022-09-17T03:30:02.142Z,1002.64
2022-09-17T03:31:02.096Z,1002.58
2022-09-17T03:32:02.054Z,1002.65
2022-09-17T03:33:02.047Z,1002.65
2022-09-17T03:34:02.576Z,1002.57
2022-09-17T03:35:02.189Z,1002.58
2022-09-17T03:36:02.571Z,1002.62
2022-09-17T03:37:02.997Z,1002.53
2022-09-17T03:38:02.518Z,1002.56
2022-09-17T03:39:02.988Z,1002.58
2022-09-17T03:40:02.780Z,1002.58
2022-09-17T03:41:03.076Z,1002.58
2022-09-17T03:42:02.212Z,1002.57
2022-09-17T03:43:02.057Z,1002.52
2022-09-17T03:44:01.829Z,1002.53
2022-09-17T03:45:01.783Z,1002.60
2022-09-17T03:46:01.712Z,1002.60
2022-09-17T03:47:02.119Z,1002.63
2022-09-17T03:48:02.034Z,1002.65
2022-09-17T03:49:01.886Z,1002.64
2022-09-17T03:50:02.030Z,1002.65
2022-09-17T03:51:02.281Z,1002.68
2022-09-17T03:52:02.102Z,1002.66
2022-09-17T03:53:02.723Z,1002.65
2022-09-17T03:54:02.503Z,1002.67
2022-09-17T03:55:02.399Z,1002.73
2022-09-17T03:56:02.240Z,1002.75
2022-09-17T03:57:01.949Z,1002.78
2022-09-17T03:58:01.816Z,1002.77
2022-09-17T03:59:01.735Z,1002.73
2022-09-17T04:00:02.189Z,1002.67
2022-09-17T04:01:02.330Z,1002.70
2022-09-17T04:02:02.811Z,1002.73
2022-09-17T04:03:02.710Z,1002.68
2022-09-17T04:04:02.727Z,1002.74
2022-09-17T04:05:02.797Z,1002.70
2022-09-17T04:06:02.858Z,1002.76
2022-09-17T04:07:02.719Z,1002.75
2022-09-17T04:08:02.575Z,1002.80
2022-09-17T04:09:02.631Z,1002.80
2022-09-17T04:10:02.519Z,1002.78
2022-09-17T04:11:02.363Z,1002.77
2022-09-17T04:12:03.123Z,1002.76
2022-09-17T04:13:03.286Z,1002.76
2022-09-17T04:14:03.177Z,1002.78
2022-09-17T04:15:02.976Z,1002.81
2022-09-17T04:16:03.221Z,1002.82
2022-09-17T04:17:02.575Z,1002.80
2022-09-17T04:18:02.231Z,1002.80
2022-09-17T04:19:02.500Z,1002.74
2022-09-17T04:20:02.745Z,1002.80
2022-09-17T04:21:02.646Z,1002.79
2022-09-17T04:22:03.396Z,1002.78
2022-09-17T04:23:02.809Z,1002.77
2022-09-17T04:24:02.879Z,1002.77
2022-09-17T04:25:03.125Z,1002.75
2022-09-17T04:26:03.411Z,1002.81
2022-09-17T04:27:02.939Z,1002.82
2022-09-17T04:28:03.463Z,1002.83
2022-09-17T04:29:03.147Z,1002.84
2022-09-17T04:30:03.245Z,1002.79
2022-09-17T04:31:03.126Z,1002.78
2022-09-17T04:32:03.534Z,1002.78
2022-09-17T04:33:03.136Z,1002.83
2022-09-17T04:34:03.514Z,1002.72
2022-09-17T04:35:03.023Z,1002.73
2022-09-17T04:36:03.361Z,1002.82
2022-09-17T04:37:02.656Z,1002.73
2022-09-17T04:38:02.633Z,1002.79
2022-09-17T04:39:02.913Z,1002.75
2022-09-17T04:40:05.750Z,1002.82
2022-09-17T04:41:02.691Z,1002.82
2022-09-17T04:42:02.837Z,1002.79
2022-09-17T04:43:03.164Z,1002.78
2022-09-17T04:44:03.193Z,1002.76
2022-09-17T04:45:02.927Z,1002.79
2022-09-17T04:46:02.652Z,1002.73
2022-09-17T04:47:02.359Z,1002.71
2022-09-17T04:48:02.445Z,1002.75
2022-09-17T04:49:02.432Z,1002.82
2022-09-17T04:50:02.303Z,1002.80
2022-09-17T04:51:01.993Z,1002.87
2022-09-17T04:52:02.521Z,1002.90
2022-09-17T04:53:02.719Z,1002.83
2022-09-17T04:54:02.306Z,1002.87
2022-09-17T04:55:02.831Z,1002.90
2022-09-17T04:56:02.670Z,1002.84
2022-09-17T04:57:02.717Z,1002.87
2022-09-17T04:58:02.838Z,1002.92
2022-09-17T04:59:02.422Z,1002.90
2022-09-17T05:00:02.832Z,1002.92
2022-09-17T05:01:02.582Z,1002.91
2022-09-17T05:02:03.078Z,1002.92
2022-09-17T05:03:03.214Z,1002.92
2022-09-17T05:04:03.109Z,1002.98
2022-09-17T05:05:03.473Z,1002.97
2022-09-17T05:06:03.550Z,1002.96
2022-09-17T05:07:02.576Z,1002.96
2022-09-17T05:08:02.588Z,1002.93
2022-09-17T05:09:02.132Z,1003.01
2022-09-17T05:10:02.673Z,1002.95
2022-09-17T05:11:02.624Z,1002.97
2022-09-17T05:12:03.362Z,1003.04
2022-09-17T05:13:02.823Z,1003.03
2022-09-17T05:14:02.803Z,1003.03
2022-09-17T05:15:02.818Z,1003.04
2022-09-17T05:16:03.371Z,1003.07
2022-09-17T05:17:03.468Z,1003.09
2022-09-17T05:18:03.429Z,1003.13
2022-09-17T05:19:03.036Z,1003.11
2022-09-17T05:20:03.390Z,1003.05
2022-09-17T05:21:03.165Z,1003.07
2022-09-17T05:22:02.339Z,1003.06
2022-09-17T05:23:02.785Z,1003.04
2022-09-17T05:24:02.563Z,1003.06
2022-09-17T05:25:02.072Z,1003.13
2022-09-17T05:26:02.159Z,1003.12
2022-09-17T05:27:02.885Z,1003.15
2022-09-17T05:28:02.964Z,1003.15
2022-09-17T05:29:02.596Z,1003.13
2022-09-17T05:30:02.615Z,1003.19
2022-09-17T05:31:02.460Z,1003.17
2022-09-17T05:32:02.940Z,1003.15
2022-09-17T05:33:03.057Z,1003.20
2022-09-17T05:34:03.028Z,1003.22
2022-09-17T05:35:05.556Z,1003.24
2022-09-17T05:36:02.798Z,1003.23
2022-09-17T05:37:03.034Z,1003.22
2022-09-17T05:38:03.102Z,1003.23
2022-09-17T05:39:02.748Z,1003.23
2022-09-17T05:40:03.020Z,1003.23
2022-09-17T05:41:03.125Z,1003.26
2022-09-17T05:42:03.128Z,1003.24
2022-09-17T05:43:03.516Z,1003.26
2022-09-17T05:44:03.667Z,1003.24
2022-09-17T05:45:03.209Z,1003.28
2022-09-17T05:46:03.385Z,1003.23
2022-09-17T05:47:02.891Z,1003.32
2022-09-17T05:48:02.585Z,1003.32
2022-09-17T05:49:02.879Z,1003.37
2022-09-17T05:50:02.738Z,1003.32
2022-09-17T05:51:02.528Z,1003.39
2022-09-17T05:52:03.141Z,1003.36
2022-09-17T05:53:02.752Z,1003.40
2022-09-17T05:54:02.866Z,1003.36
2022-09-17T05:55:02.829Z,1003.43
2022-09-17T05:56:03.206Z,1003.41
2022-09-17T05:57:02.992Z,1003.38
2022-09-17T05:58:03.010Z,1003.44
2022-09-17T05:59:02.791Z,1003.42
2022-09-17T06:00:02.422Z,1003.43
2022-09-17T06:01:02.620Z,1003.43
2022-09-17T06:02:02.929Z,1003.48
2022-09-17T06:03:02.922Z,1003.45
2022-09-17T06:04:03.029Z,1003.49
2022-09-17T06:05:03.030Z,1003.44
2022-09-17T06:06:02.813Z,1003.55
2022-09-17T06:07:03.242Z,1003.42
2022-09-17T06:08:03.569Z,1003.50
2022-09-17T06:09:03.129Z,1003.54
2022-09-17T06:10:03.207Z,1003.60
2022-09-17T06:11:03.114Z,1003.61
2022-09-17T06:12:02.816Z,1003.58
2022-09-17T06:13:02.706Z,1003.55
2022-09-17T06:14:02.539Z,1003.66
2022-09-17T06:15:02.602Z,1003.60
2022-09-17T06:16:02.424Z,1003.61
2022-09-17T06:17:03.255Z,1003.67
2022-09-17T06:18:02.683Z,1003.63
2022-09-17T06:19:03.191Z,1003.63
2022-09-17T06:20:03.206Z,1003.60
2022-09-17T06:21:03.201Z,1003.59
2022-09-17T06:22:03.071Z,1003.63
2022-09-17T06:23:03.412Z,1003.66
2022-09-17T06:24:03.595Z,1003.68
2022-09-17T06:25:03.387Z,1003.61
2022-09-17T06:26:03.383Z,1003.68
2022-09-17T06:27:02.451Z,1003.70
2022-09-17T06:28:02.778Z,1003.77
2022-09-17T06:29:02.417Z,1003.70
2022-09-17T06:30:02.312Z,1003.78
2022-09-17T06:31:02.409Z,1003.74
2022-09-17T06:32:02.422Z,1003.73
2022-09-17T06:33:02.829Z,1003.75
2022-09-17T06:34:02.862Z,1003.73
2022-09-17T06:35:02.478Z,1003.73
2022-09-17T06:36:03.044Z,1003.75
2022-09-17T06:37:03.354Z,1003.69
2022-09-17T06:38:03.351Z,1003.71
2022-09-17T06:39:03.645Z,1003.73
2022-09-17T06:40:03.570Z,1003.75
2022-09-17T06:41:03.488Z,1003.73
2022-09-17T06:42:02.654Z,1003.73
2022-09-17T06:43:02.986Z,1003.77
2022-09-17T06:44:02.886Z,1003.78
2022-09-17T06:45:07.647Z,1003.72
2022-09-17T06:46:02.644Z,1003.71
2022-09-17T06:47:02.754Z,1003.72
2022-09-17T06:48:03.076Z,1003.75
2022-09-17T06:49:02.891Z,1003.72
2022-09-17T06:50:03.150Z,1003.73
2022-09-17T06:51:02.981Z,1003.77
2022-09-17T06:52:03.012Z,1003.74
2022-09-17T06:53:03.037Z,1003.75
2022-09-17T06:54:03.122Z,1003.75
2022-09-17T06:55:03.260Z,1003.74
2022-09-17T06:56:06.476Z,1003.78
2022-09-17T06:57:03.457Z,1003.76
2022-09-17T06:58:03.367Z,1003.74
2022-09-17T06:59:03.586Z,1003.73
2022-09-17T07:00:03.651Z,1003.67
2022-09-17T07:01:03.201Z,1003.62
2022-09-17T07:02:03.364Z,1003.66
2022-09-17T07:03:03.200Z,1003.72
2022-09-17T07:04:03.197Z,1003.64
2022-09-17T07:05:03.332Z,1003.69
2022-09-17T07:06:03.524Z,1003.65
2022-09-17T07:07:02.733Z,1003.78
2022-09-17T07:08:02.594Z,1003.72
2022-09-17T07:09:03.105Z,1003.63
2022-09-17T07:10:03.239Z,1003.64
2022-09-17T07:11:02.526Z,1003.69
2022-09-17T07:12:03.630Z,1003.66
2022-09-17T07:13:03.640Z,1003.64
2022-09-17T07:14:03.235Z,1003.62
2022-09-17T07:15:03.279Z,1003.68
2022-09-17T07:16:03.476Z,1003.63
2022-09-17T07:17:02.626Z,1003.73
2022-09-17T07:18:03.026Z,1003.74
2022-09-17T07:19:02.744Z,1003.67
2022-09-17T07:20:03.079Z,1003.70
2022-09-17T07:21:02.897Z,1003.75
2022-09-17T07:22:03.264Z,1003.70
2022-09-17T07:23:03.486Z,1003.70
2022-09-17T07:24:03.328Z,1003.75
2022-09-17T07:25:03.460Z,1003.72
2022-09-17T07:26:03.461Z,1003.66
2022-09-17T07:27:02.929Z,1003.67
2022-09-17T07:28:02.806Z,1003.70
2022-09-17T07:29:02.829Z,1003.69
2022-09-17T07:30:02.939Z,1003.66
2022-09-17T07:31:02.691Z,1003.71
2022-09-17T07:32:03.614Z,1003.72
2022-09-17T07:33:03.664Z,1003.76
2022-09-17T07:34:03.570Z,1003.76
2022-09-17T07:35:03.616Z,1003.71
2022-09-17T07:36:03.906Z,1003.76
2022-09-17T07:37:02.777Z,1003.80
2022-09-17T07:38:02.864Z,1003.81
2022-09-17T07:39:02.533Z,1003.80
2022-09-17T07:40:03.057Z,1003.85
2022-09-17T07:41:02.977Z,1003.78
2022-09-17T07:42:03.322Z,1003.83
2022-09-17T07:43:03.079Z,1003.82
2022-09-17T07:44:03.011Z,1003.83
2022-09-17T07:45:03.137Z,1003.84
2022-09-17T07:46:03.137Z,1003.83
2022-09-17T07:47:03.379Z,1003.85
2022-09-17T07:48:02.955Z,1003.85
2022-09-17T07:49:03.371Z,1003.85
2022-09-17T07:50:02.948Z,1003.95
2022-09-17T07:51:03.373Z,1003.85
2022-09-17T07:52:03.809Z,1003.92
2022-09-17T07:53:03.649Z,1003.88
2022-09-17T07:54:03.593Z,1003.92
2022-09-17T07:55:03.600Z,1003.91
2022-09-17T07:56:04.649Z,1003.90
2022-09-17T07:57:02.735Z,1003.86
2022-09-17T07:58:02.859Z,1003.87
2022-09-17T07:59:02.997Z,1003.90
2022-09-17T08:00:03.036Z,1003.87
2022-09-17T08:01:02.859Z,1003.82
2022-09-17T08:02:02.845Z,1003.86
2022-09-17T08:03:03.016Z,1003.84
2022-09-17T08:04:02.583Z,1003.93
2022-09-17T08:05:02.916Z,1003.91
2022-09-17T08:06:02.292Z,1003.94
2022-09-17T08:07:03.050Z,1003.92
2022-09-17T08:08:02.841Z,1003.96
2022-09-17T08:09:03.012Z,1003.93
2022-09-17T08:10:02.695Z,1003.91
2022-09-17T08:11:03.131Z,1003.95
2022-09-17T08:12:02.331Z,1003.93
2022-09-17T08:13:02.580Z,1003.86
2022-09-17T08:14:02.369Z,1003.90
2022-09-17T08:15:02.804Z,1003.90
2022-09-17T08:16:02.690Z,1003.88
2022-09-17T08:17:02.550Z,1003.92
2022-09-17T08:18:02.595Z,1003.89
2022-09-17T08:19:02.536Z,1003.90
2022-09-17T08:20:02.480Z,1003.86
2022-09-17T08:21:03.042Z,1003.89
2022-09-17T08:22:03.145Z,1003.90
2022-09-17T08:23:02.978Z,1003.91
2022-09-17T08:24:02.899Z,1003.92
2022-09-17T08:25:02.973Z,1003.93
2022-09-17T08:26:02.888Z,1003.85
2022-09-17T08:27:02.801Z,1003.82
2022-09-17T08:28:02.560Z,1003.81
2022-09-17T08:29:02.452Z,1003.84
2022-09-17T08:30:02.444Z,1003.85
2022-09-17T08:31:02.738Z,1003.89
2022-09-17T08:32:02.597Z,1003.91
2022-09-17T08:33:02.389Z,1003.90
2022-09-17T08:34:02.440Z,1003.93
2022-09-17T08:35:02.178Z,1003.87
2022-09-17T08:36:02.106Z,1003.86
2022-09-17T08:37:02.800Z,1003.92
2022-09-17T08:38:02.878Z,1003.89
2022-09-17T08:39:02.506Z,1003.87
2022-09-17T08:40:02.790Z,1003.90
2022-09-17T08:41:02.338Z,1003.90
2022-09-17T08:42:02.882Z,1003.93
2022-09-17T08:43:03.037Z,1003.91
2022-09-17T08:44:02.973Z,1003.96
2022-09-17T08:45:03.033Z,1003.94
2022-09-17T08:46:03.064Z,1003.85
2022-09-17T08:47:02.819Z,1003.89
2022-09-17T08:48:02.474Z,1003.91
2022-09-17T08:49:02.560Z,1003.86
2022-09-17T08:50:02.869Z,1003.89
2022-09-17T08:51:06.621Z,1003.89
2022-09-17T08:52:02.620Z,1003.83
2022-09-17T08:53:02.821Z,1003.80
2022-09-17T08:54:02.953Z,1003.89
2022-09-17T08:55:02.551Z,1003.84
2022-09-17T08:56:02.622Z,1003.82
2022-09-17T08:57:02.138Z,1003.88
2022-09-17T08:58:02.497Z,1003.86
2022-09-17T08:59:02.472Z,1003.83
2022-09-17T09:00:02.254Z,1003.80
2022-09-17T09:01:02.392Z,1003.89
2022-09-17T09:02:02.540Z,1003.78
2022-09-17T09:03:02.751Z,1003.85
2022-09-17T09:04:03.319Z,1003.79
2022-09-17T09:05:02.394Z,1003.82
2022-09-17T09:06:03.779Z,1003.76
2022-09-17T09:07:02.606Z,1003.79
2022-09-17T09:08:02.711Z,1003.74
2022-09-17T09:09:02.665Z,1003.71
2022-09-17T09:10:02.736Z,1003.73
2022-09-17T09:11:03.082Z,1003.62
2022-09-17T09:12:03.187Z,1003.64
2022-09-17T09:13:02.875Z,1003.69
2022-09-17T09:14:03.202Z,1003.63
2022-09-17T09:15:02.609Z,1003.64
2022-09-17T09:16:02.749Z,1003.67
2022-09-17T09:17:03.099Z,1003.59
2022-09-17T09:18:03.132Z,1003.57
2022-09-17T09:19:03.555Z,1003.58
2022-09-17T09:20:03.484Z,1003.59
2022-09-17T09:21:02.886Z,1003.61
2022-09-17T09:22:02.829Z,1003.69
2022-09-17T09:23:02.421Z,1003.68
2022-09-17T09:24:02.384Z,1003.70
2022-09-17T09:25:02.461Z,1003.68
2022-09-17T09:26:02.389Z,1003.75
2022-09-17T09:27:02.923Z,1003.74
2022-09-17T09:28:03.242Z,1003.68
2022-09-17T09:29:03.255Z,1003.79
2022-09-17T09:30:02.881Z,1003.82
2022-09-17T09:31:03.474Z,1003.81
2022-09-17T09:32:02.638Z,1003.75
2022-09-17T09:33:02.592Z,1003.84
2022-09-17T09:34:02.933Z,1003.87
2022-09-17T09:35:02.953Z,1003.80
2022-09-17T09:36:02.989Z,1003.83
2022-09-17T09:37:02.799Z,1003.81
2022-09-17T09:38:02.707Z,1003.73
2022-09-17T09:39:03.280Z,1003.74
2022-09-17T09:40:03.332Z,1003.78
2022-09-17T09:41:03.116Z,1003.76
2022-09-17T09:42:03.449Z,1003.77
2022-09-17T09:43:03.542Z,1003.84
2022-09-17T09:44:04.751Z,1003.76
2022-09-17T09:45:05.401Z,1003.76
2022-09-17T09:46:03.709Z,1003.73
2022-09-17T09:47:02.450Z,1003.69
2022-09-17T09:48:02.330Z,1003.79
2022-09-17T09:49:02.301Z,1003.71
2022-09-17T09:50:02.394Z,1003.67
2022-09-17T09:51:06.539Z,1003.71
2022-09-17T09:52:03.033Z,1003.75
2022-09-17T09:53:03.416Z,1003.66
2022-09-17T09:54:02.801Z,1003.70
2022-09-17T09:55:03.353Z,1003.68
2022-09-17T09:56:03.313Z,1003.67
2022-09-17T09:57:02.721Z,1003.67
2022-09-17T09:58:02.377Z,1003.80
2022-09-17T09:59:02.306Z,1003.76
2022-09-17T10:00:02.313Z,1003.75
2022-09-17T10:01:02.433Z,1003.73
2022-09-17T10:02:02.614Z,1003.70
2022-09-17T10:03:02.793Z,1003.67
2022-09-17T10:04:02.470Z,1003.68
2022-09-17T10:05:02.680Z,1003.72
2022-09-17T10:06:02.912Z,1003.81
2022-09-17T10:07:02.537Z,1003.68
2022-09-17T10:08:02.607Z,1003.70
2022-09-17T10:09:02.787Z,1003.72
2022-09-17T10:10:02.841Z,1003.65
2022-09-17T10:11:02.682Z,1003.64
2022-09-17T10:12:03.014Z,1003.65
2022-09-17T10:13:03.425Z,1003.64
2022-09-17T10:14:06.724Z,1003.68
2022-09-17T10:15:03.302Z,1003.65
2022-09-17T10:16:03.482Z,1003.61
2022-09-17T10:17:02.449Z,1003.61
2022-09-17T10:18:02.416Z,1003.65
2022-09-17T10:19:02.372Z,1003.69
2022-09-17T10:20:02.378Z,1003.67
2022-09-17T10:21:02.655Z,1003.61
2022-09-17T10:22:02.333Z,1003.67
2022-09-17T10:23:02.858Z,1003.66
2022-09-17T10:24:03.042Z,1003.63
2022-09-17T10:25:02.911Z,1003.60
2022-09-17T10:26:02.928Z,1003.65
2022-09-17T10:27:02.915Z,1003.70
2022-09-17T10:28:02.773Z,1003.60
2022-09-17T10:29:02.834Z,1003.66
2022-09-17T10:30:02.699Z,1003.69
2022-09-17T10:31:07.849Z,1003.72
2022-09-17T10:32:03.095Z,1003.72
2022-09-17T10:33:02.998Z,1003.70
2022-09-17T10:34:03.325Z,1003.69
2022-09-17T10:35:03.324Z,1003.64
2022-09-17T10:36:02.890Z,1003.68
2022-09-17T10:37:03.254Z,1003.66
2022-09-17T10:38:03.241Z,1003.62
2022-09-17T10:39:03.222Z,1003.67
2022-09-17T10:40:03.746Z,1003.67
2022-09-17T10:41:03.270Z,1003.61
2022-09-17T10:42:03.023Z,1003.64
2022-09-17T10:43:02.374Z,1003.58
2022-09-17T10:44:02.821Z,1003.54
2022-09-17T10:45:02.772Z,1003.52
2022-09-17T10:46:02.394Z,1003.51
2022-09-17T10:47:03.342Z,1003.55
2022-09-17T10:48:03.411Z,1003.54
2022-09-17T10:49:03.414Z,1003.57
2022-09-17T10:50:03.451Z,1003.50
2022-09-17T10:51:03.629Z,1003.52
2022-09-17T10:52:02.583Z,1003.53
2022-09-17T10:53:02.547Z,1003.53
2022-09-17T10:54:02.747Z,1003.52
2022-09-17T10:55:02.882Z,1003.56
2022-09-17T10:56:02.580Z,1003.59
2022-09-17T10:57:03.121Z,1003.54
2022-09-17T10:58:03.112Z,1003.54
2022-09-17T10:59:03.273Z,1003.49
2022-09-17T11:00:03.404Z,1003.48
2022-09-17T11:01:03.344Z,1003.46
2022-09-17T11:02:03.335Z,1003.41
2022-09-17T11:03:03.370Z,1003.39
2022-09-17T11:04:03.322Z,1003.42
2022-09-17T11:05:03.245Z,1003.33
2022-09-17T11:06:03.434Z,1003.32
2022-09-17T11:07:03.009Z,1003.20
2022-09-17T11:08:03.049Z,1003.30
2022-09-17T11:09:03.124Z,1003.19
2022-09-17T11:10:03.125Z,1003.26
2022-09-17T11:11:03.145Z,1003.19
2022-09-17T11:12:02.956Z,1003.15
2022-09-17T11:13:02.862Z,1003.14
2022-09-17T11:14:02.751Z,1003.17
2022-09-17T11:15:02.602Z,1003.13
2022-09-17T11:16:02.690Z,1003.20
2022-09-17T11:17:03.117Z,1003.16
2022-09-17T11:18:03.361Z,1003.18
2022-09-17T11:19:03.151Z,1003.18
2022-09-17T11:20:03.203Z,1003.11
2022-09-17T11:21:03.351Z,1003.11
2022-09-17T11:22:03.186Z,1003.12
2022-09-17T11:23:02.773Z,1003.19
2022-09-17T11:24:03.031Z,1003.11
2022-09-17T11:25:03.199Z,1003.14
2022-09-17T11:26:02.981Z,1003.13
2022-09-17T11:27:03.351Z,1003.10
2022-09-17T11:28:03.505Z,1003.11
2022-09-17T11:29:03.470Z,1003.05
2022-09-17T11:30:03.554Z,1003.16
2022-09-17T11:31:03.570Z,1003.10
2022-09-17T11:32:03.037Z,1003.14
2022-09-17T11:33:03.046Z,1003.15
2022-09-17T11:34:02.978Z,1003.13
2022-09-17T11:35:03.002Z,1003.18
2022-09-17T11:36:02.881Z,1003.12
2022-09-17T11:37:03.343Z,1003.18
2022-09-17T11:38:03.214Z,1003.16
2022-09-17T11:39:02.873Z,1003.17
2022-09-17T11:40:03.073Z,1003.15
2022-09-17T11:41:03.143Z,1003.19
2022-09-17T11:42:03.680Z,1003.11
2022-09-17T11:43:03.594Z,1003.24
2022-09-17T11:44:03.852Z,1003.16
2022-09-17T11:45:03.496Z,1003.12
2022-09-17T11:46:03.798Z,1003.10
2022-09-17T11:47:03.281Z,1003.22
2022-09-17T11:48:03.408Z,1003.16
2022-09-17T11:49:02.807Z,1003.22
2022-09-17T11:50:03.085Z,1003.11
2022-09-17T11:51:03.352Z,1003.01
2022-09-17T11:52:03.026Z,1003.15
2022-09-17T11:53:02.890Z,1003.09
2022-09-17T11:54:02.813Z,1002.98
2022-09-17T11:55:02.775Z,1003.09
2022-09-17T11:56:02.655Z,1003.07
2022-09-17T11:57:06.395Z,1003.11
2022-09-17T11:58:02.817Z,1003.03
2022-09-17T11:59:03.104Z,1003.09
2022-09-17T12:00:03.314Z,1003.03
2022-09-17T12:01:02.985Z,1003.02
2022-09-17T12:02:03.634Z,1003.03
2022-09-17T12:03:03.133Z,1003.04
2022-09-17T12:04:03.444Z,1002.99
2022-09-17T12:05:03.586Z,1003.08